LKBL weather

CLOSED Blátna Airport
Blátna, South Bohemian Region, Czechia

Public forecast

Using degrees Celsius for public forecast. Weather courtesy of forecast.io.

METAR (pilot weather report)

Closest report is Plzeň-Líně Airport, 25.1 nm (46.4 km) NW. Retrieved 2019/08/19 15:00 UTC (14 minutes ago):

LKLN 191500Z AUTO 21006KT 190V260 9999 SCT031 BKN170 23/16 Q1019

TAF (pilot weather forecast)

Closest forecast is Václav Havel Airport Prague, 44.0 nm (81.5 km) NNE. Retrieved 2019/08/19 12:21 UTC (3 hours ago):

TAF LKPR 191100Z 1912/2018 23008KT 9999 SCT026 TEMPO 1912/1917 27010G22KT 9000 SHRA SCT020TCU BKN026 BECMG 2000/2002 VRB02KT 2500 BR SCT007 TEMPO 2002/2005 0900 FG OVC003 BECMG 2005/2007 01008KT 9999 BKN026 TEMPO 2007/2018 9000 RA BKN014